createdAt,value
2023-01-07T00:01:44.603Z,9.30
2023-01-07T00:04:15.604Z,10.00
2023-01-07T00:06:45.433Z,11.30
2023-01-07T00:09:16.863Z,10.60
2023-01-07T00:11:46.037Z,9.60
2023-01-07T00:14:15.436Z,9.70
2023-01-07T00:16:44.176Z,10.80
2023-01-07T00:19:15.954Z,10.10
2023-01-07T00:21:44.373Z,11.10
2023-01-07T00:24:13.270Z,10.80
2023-01-07T00:26:41.992Z,11.20
2023-01-07T00:29:10.635Z,11.40
2023-01-07T00:31:40.655Z,11.80
2023-01-07T00:34:09.786Z,11.70
2023-01-07T00:36:46.952Z,13.40
2023-01-07T00:39:20.964Z,12.40
2023-01-07T00:42:08.640Z,12.30
2023-01-07T00:44:38.134Z,12.70
2023-01-07T00:47:06.712Z,12.10
2023-01-07T00:49:35.197Z,12.10
2023-01-07T00:52:03.796Z,12.70
2023-01-07T00:54:32.273Z,12.90
2023-01-07T00:57:00.714Z,13.30
2023-01-07T00:59:53.838Z,12.00
2023-01-07T01:02:22.421Z,12.40
2023-01-07T01:04:50.894Z,13.80
2023-01-07T01:07:19.232Z,14.00
2023-01-07T01:09:47.674Z,14.00
2023-01-07T01:12:16.121Z,14.80
2023-01-07T01:14:44.599Z,14.00
2023-01-07T01:17:13.033Z,14.50
2023-01-07T01:19:41.394Z,14.80
2023-01-07T01:22:09.933Z,14.60
2023-01-07T01:24:38.294Z,13.50
2023-01-07T01:27:06.693Z,15.60
2023-01-07T01:29:35.074Z,15.10
2023-01-07T01:32:03.614Z,15.30
2023-01-07T01:34:32.115Z,15.20
2023-01-07T01:37:00.432Z,15.40
2023-01-07T01:39:28.912Z,14.10
2023-01-07T01:41:57.278Z,14.40
2023-01-07T01:44:44.274Z,13.80
2023-01-07T01:47:27.715Z,14.00
2023-01-07T01:50:05.792Z,14.30
2023-01-07T01:52:40.383Z,11.30
2023-01-07T01:55:10.532Z,11.20
2023-01-07T01:57:40.442Z,10.30
2023-01-07T02:00:10.380Z,10.60
2023-01-07T02:02:47.460Z,10.10
2023-01-07T02:05:16.807Z,10.00
2023-01-07T02:07:45.219Z,9.90
2023-01-07T02:10:22.361Z,9.50
2023-01-07T02:12:51.132Z,9.20
2023-01-07T02:15:31.720Z,9.20
2023-01-07T02:18:43.345Z,8.00
2023-01-07T02:21:33.562Z,10.10
2023-01-07T02:27:21.990Z,9.00
2023-01-07T02:29:56.061Z,9.50
2023-01-07T02:32:46.945Z,8.20
2023-01-07T02:35:24.320Z,10.30
2023-01-07T02:38:19.048Z,10.70
2023-01-07T02:40:56.582Z,12.00
2023-01-07T02:43:43.670Z,10.90
2023-01-07T02:46:31.663Z,11.00
2023-01-07T02:49:01.258Z,9.90
2023-01-07T02:51:38.039Z,10.80
2023-01-07T02:54:11.839Z,11.30
2023-01-07T02:56:55.279Z,11.70
2023-01-07T03:00:00.419Z,13.00
2023-01-07T03:02:34.529Z,13.70
2023-01-07T03:05:08.576Z,12.30
2023-01-07T03:08:02.653Z,11.90
2023-01-07T03:10:52.829Z,13.20
2023-01-07T03:13:27.290Z,10.70
2023-01-07T03:16:06.413Z,10.30
2023-01-07T03:18:43.717Z,9.60
2023-01-07T03:21:16.416Z,8.90
2023-01-07T03:23:50.912Z,8.90
2023-01-07T03:26:27.202Z,9.20
2023-01-07T03:28:59.571Z,9.80
2023-01-07T03:31:29.601Z,9.50
2023-01-07T03:34:08.812Z,10.00
2023-01-07T03:36:43.677Z,10.30
2023-01-07T03:39:13.952Z,11.00
2023-01-07T03:42:00.702Z,10.70
2023-01-07T03:44:29.135Z,9.70
2023-01-07T03:46:57.496Z,10.70
2023-01-07T03:49:26.050Z,9.90
2023-01-07T03:51:55.024Z,10.20
2023-01-07T03:54:26.366Z,9.60
2023-01-07T03:56:54.884Z,9.70
2023-01-07T04:00:00.883Z,10.00
2023-01-07T04:02:29.341Z,10.20
2023-01-07T04:04:57.824Z,10.30
2023-01-07T04:07:26.274Z,9.70
2023-01-07T04:09:54.498Z,10.40
2023-01-07T04:12:22.935Z,10.40
2023-01-07T04:14:51.294Z,9.80
2023-01-07T04:17:19.707Z,10.90
2023-01-07T04:19:48.147Z,11.30
2023-01-07T04:22:16.670Z,9.70
2023-01-07T04:24:45.107Z,9.80
2023-01-07T04:27:13.441Z,10.20
2023-01-07T04:29:41.967Z,12.10
2023-01-07T04:32:10.406Z,10.60
2023-01-07T04:34:38.836Z,10.70
2023-01-07T04:37:07.268Z,10.50
2023-01-07T04:39:35.603Z,11.70
2023-01-07T04:42:04.032Z,11.60
2023-01-07T04:44:32.449Z,11.50
2023-01-07T04:47:00.809Z,11.40
2023-01-07T04:49:29.280Z,12.10
2023-01-07T04:51:57.555Z,11.10
2023-01-07T04:54:25.885Z,10.60
2023-01-07T04:56:54.349Z,10.50
2023-01-07T04:59:42.972Z,10.60
2023-01-07T05:02:11.483Z,11.00
2023-01-07T05:04:39.998Z,10.40
2023-01-07T05:07:08.406Z,10.40
2023-01-07T05:09:36.990Z,10.20
2023-01-07T05:12:05.679Z,10.70
2023-01-07T05:14:34.130Z,12.60
2023-01-07T05:17:02.697Z,11.50
2023-01-07T05:19:31.155Z,10.30
2023-01-07T05:22:00.880Z,10.50
2023-01-07T05:24:29.454Z,10.50
2023-01-07T05:26:57.975Z,12.90
2023-01-07T05:29:26.392Z,10.80
2023-01-07T05:31:54.827Z,10.00
2023-01-07T05:34:23.311Z,10.40
2023-01-07T05:36:51.711Z,10.40
2023-01-07T05:39:20.171Z,11.40
2023-01-07T05:41:48.631Z,9.30
2023-01-07T05:44:17.031Z,11.60
2023-01-07T05:46:45.473Z,10.60
2023-01-07T05:49:14.035Z,11.60
2023-01-07T05:51:42.531Z,11.00
2023-01-07T05:54:10.968Z,10.80
2023-01-07T05:56:39.562Z,10.70
2023-01-07T05:59:07.915Z,12.30
2023-01-07T06:01:36.477Z,11.50
2023-01-07T06:04:04.855Z,11.30
2023-01-07T06:06:33.149Z,8.90
2023-01-07T06:09:01.409Z,10.00
2023-01-07T06:11:29.767Z,10.80
2023-01-07T06:13:58.107Z,9.00
2023-01-07T06:16:26.484Z,10.20
2023-01-07T06:18:54.919Z,9.40
2023-01-07T06:21:23.360Z,9.80
2023-01-07T06:23:51.751Z,9.50
2023-01-07T06:26:20.397Z,9.60
2023-01-07T06:28:48.818Z,9.50
2023-01-07T06:31:17.198Z,10.60
2023-01-07T06:33:45.664Z,8.90
2023-01-07T06:36:14.214Z,11.10
2023-01-07T06:38:42.691Z,9.70
2023-01-07T06:41:11.048Z,9.30
2023-01-07T06:43:39.434Z,10.60
2023-01-07T06:46:08.090Z,9.00
2023-01-07T06:48:36.658Z,9.30
2023-01-07T06:51:05.102Z,9.70
2023-01-07T06:53:33.593Z,8.60
2023-01-07T06:56:01.976Z,9.80
2023-01-07T06:58:30.551Z,9.40
2023-01-07T07:01:04.693Z,8.50
2023-01-07T07:03:34.384Z,8.70
2023-01-07T07:06:02.827Z,10.60
2023-01-07T07:08:31.208Z,7.90
2023-01-07T07:10:59.579Z,8.20
2023-01-07T07:13:27.876Z,7.30
2023-01-07T07:15:56.240Z,7.70
2023-01-07T07:18:24.685Z,8.60
2023-01-07T07:20:52.973Z,7.70
2023-01-07T07:23:21.337Z,8.00
2023-01-07T07:25:49.588Z,8.20
2023-01-07T07:28:17.944Z,7.90
2023-01-07T07:30:47.564Z,8.50
2023-01-07T07:33:19.683Z,8.50
2023-01-07T07:35:48.301Z,7.90
2023-01-07T07:38:18.162Z,8.10
2023-01-07T07:40:47.258Z,8.60
2023-01-07T07:43:16.423Z,7.90
2023-01-07T07:45:45.364Z,7.90
2023-01-07T07:48:15.965Z,9.30
2023-01-07T07:50:44.365Z,8.10
2023-01-07T07:53:12.846Z,10.80
2023-01-07T07:55:41.794Z,7.70
2023-01-07T07:58:10.260Z,10.60
2023-01-07T08:00:57.612Z,12.20
2023-01-07T08:03:26.152Z,9.80
2023-01-07T08:05:54.536Z,10.20
2023-01-07T08:08:23.056Z,9.80
2023-01-07T08:10:51.392Z,9.60
2023-01-07T08:13:19.815Z,9.50
2023-01-07T08:15:48.244Z,8.90
2023-01-07T08:18:16.891Z,9.30
2023-01-07T08:20:45.286Z,9.70
2023-01-07T08:23:13.704Z,10.00
2023-01-07T08:25:42.687Z,10.40
2023-01-07T08:28:11.940Z,9.00
2023-01-07T08:30:40.625Z,8.90
2023-01-07T08:33:09.176Z,10.00
2023-01-07T08:35:37.627Z,10.40
2023-01-07T08:38:08.431Z,9.70
2023-01-07T08:40:37.755Z,9.30
2023-01-07T08:43:08.502Z,9.10
2023-01-07T08:45:37.391Z,9.70
2023-01-07T08:48:06.324Z,8.70
2023-01-07T08:50:34.869Z,10.70
2023-01-07T08:53:03.498Z,10.30
2023-01-07T08:55:31.923Z,12.50
2023-01-07T08:58:00.327Z,10.30
2023-01-07T09:00:46.875Z,10.00
2023-01-07T09:03:15.484Z,10.70
2023-01-07T09:05:44.364Z,9.60
2023-01-07T09:08:12.865Z,9.70
2023-01-07T09:10:41.271Z,10.30
2023-01-07T09:13:09.730Z,10.70
2023-01-07T09:15:38.072Z,12.30
2023-01-07T09:18:07.215Z,8.70
2023-01-07T09:20:35.644Z,11.90
2023-01-07T09:23:04.055Z,10.30
2023-01-07T09:25:32.620Z,11.90
2023-01-07T09:28:01.200Z,9.60
2023-01-07T09:30:29.697Z,9.40
2023-01-07T09:32:58.097Z,12.10
2023-01-07T09:35:26.508Z,11.60
2023-01-07T09:37:54.927Z,10.60
2023-01-07T09:40:38.457Z,13.60
2023-01-07T09:43:08.204Z,12.00
2023-01-07T09:45:58.847Z,10.90
2023-01-07T09:48:35.329Z,10.20
2023-01-07T09:51:19.802Z,12.00
2023-01-07T09:53:52.437Z,19.40
2023-01-07T09:56:25.711Z,20.30
2023-01-07T09:58:57.772Z,13.60
2023-01-07T10:01:30.617Z,11.40
2023-01-07T10:04:17.317Z,11.10
2023-01-07T10:06:54.430Z,11.10
2023-01-07T10:09:40.667Z,12.20
2023-01-07T10:12:23.607Z,10.10
2023-01-07T10:15:03.662Z,13.40
2023-01-07T10:18:06.485Z,12.60
2023-01-07T10:20:35.265Z,14.30
2023-01-07T10:23:26.259Z,16.10
2023-01-07T10:25:56.814Z,17.30
2023-01-07T10:29:00.428Z,17.20
2023-01-07T10:31:30.062Z,15.30
2023-01-07T10:33:59.816Z,16.30
2023-01-07T10:36:28.551Z,17.90
2023-01-07T10:39:14.714Z,15.20
2023-01-07T10:41:48.911Z,17.20
2023-01-07T10:44:30.181Z,17.30
2023-01-07T10:47:09.255Z,17.00
2023-01-07T10:49:58.644Z,18.90
2023-01-07T10:52:38.807Z,17.40
2023-01-07T10:55:22.400Z,17.50
2023-01-07T10:57:50.945Z,17.70
2023-01-07T11:00:20.868Z,17.00
2023-01-07T11:02:56.962Z,16.80
2023-01-07T11:05:37.322Z,16.70
2023-01-07T11:08:13.233Z,18.60
2023-01-07T11:10:42.062Z,18.20
2023-01-07T11:13:16.972Z,17.90
2023-01-07T11:15:54.955Z,19.00
2023-01-07T11:18:35.700Z,18.70
2023-01-07T11:21:04.112Z,20.60
2023-01-07T11:23:42.698Z,20.20
2023-01-07T11:26:25.535Z,18.80
2023-01-07T11:29:03.034Z,18.90
2023-01-07T11:31:53.906Z,17.40
2023-01-07T11:34:30.685Z,17.40
2023-01-07T11:36:59.333Z,13.50
2023-01-07T11:39:36.154Z,13.50
2023-01-07T11:42:35.672Z,14.20
2023-01-07T11:45:25.127Z,13.30
2023-01-07T11:47:59.347Z,12.80
2023-01-07T11:51:03.021Z,14.10
2023-01-07T11:53:51.002Z,13.20
2023-01-07T11:56:22.197Z,25.10
2023-01-07T11:59:46.983Z,17.50
2023-01-07T12:02:28.010Z,19.90
2023-01-07T12:05:19.294Z,16.90
2023-01-07T12:07:51.947Z,14.80
2023-01-07T12:10:33.543Z,22.50
2023-01-07T12:13:32.543Z,22.70
2023-01-07T12:16:02.277Z,21.50
2023-01-07T12:18:50.170Z,24.20
2023-01-07T12:21:50.108Z,15.80
2023-01-07T12:24:56.509Z,16.10
2023-01-07T12:30:37.377Z,18.40
2023-01-07T12:33:17.777Z,16.00
2023-01-07T12:35:46.256Z,16.20
2023-01-07T12:38:46.776Z,18.00
2023-01-07T12:41:21.047Z,17.10
2023-01-07T12:44:02.927Z,17.20
2023-01-07T12:47:32.107Z,17.80
2023-01-07T12:50:01.542Z,19.60
2023-01-07T12:52:41.984Z,19.50
2023-01-07T12:55:28.911Z,19.40
2023-01-07T12:58:11.022Z,19.10
2023-01-07T13:01:07.045Z,19.90
2023-01-07T13:03:58.524Z,23.80
2023-01-07T13:06:50.340Z,24.30
2023-01-07T13:09:29.063Z,28.30
2023-01-07T13:12:45.929Z,27.10
2023-01-07T13:15:34.001Z,29.50
2023-01-07T13:18:16.366Z,33.90
2023-01-07T13:21:07.897Z,31.10
2023-01-07T13:23:56.801Z,27.90
2023-01-07T13:26:31.320Z,29.40
2023-01-07T13:29:21.125Z,27.10
2023-01-07T13:32:31.205Z,35.20
2023-01-07T13:35:14.564Z,31.50
2023-01-07T13:38:03.822Z,35.70
2023-01-07T13:40:50.449Z,33.30
2023-01-07T13:43:34.162Z,35.10
2023-01-07T13:46:29.811Z,33.70
2023-01-07T13:48:58.355Z,35.70
2023-01-07T13:51:33.354Z,34.40
2023-01-07T13:54:02.293Z,33.50
2023-01-07T13:56:36.332Z,48.60
2023-01-07T14:01:34.409Z,31.80
2023-01-07T14:04:07.252Z,30.50
2023-01-07T14:06:45.115Z,32.70
2023-01-07T14:09:21.792Z,29.50
2023-01-07T14:12:17.995Z,27.70
2023-01-07T14:15:07.292Z,31.80
2023-01-07T14:17:53.685Z,31.60
2023-01-07T14:20:29.223Z,29.80
2023-01-07T14:23:20.160Z,26.90
2023-01-07T14:26:10.691Z,28.10
2023-01-07T14:29:10.727Z,28.10
2023-01-07T14:31:39.337Z,32.30
2023-01-07T14:34:19.359Z,32.80
2023-01-07T14:37:05.110Z,26.30
2023-01-07T14:39:34.795Z,23.30
2023-01-07T14:42:20.892Z,33.60
2023-01-07T14:44:51.330Z,40.50
2023-01-07T14:47:58.065Z,30.40
2023-01-07T14:50:42.959Z,30.50
2023-01-07T14:53:54.605Z,31.10
2023-01-07T14:56:36.334Z,31.50
2023-01-07T14:59:31.736Z,31.40
2023-01-07T15:02:17.112Z,11.50
2023-01-07T15:04:54.105Z,32.70
2023-01-07T15:07:26.951Z,34.10
2023-01-07T15:10:17.179Z,26.00
2023-01-07T15:12:55.934Z,37.70
2023-01-07T15:15:54.932Z,24.70
2023-01-07T15:18:23.737Z,51.80
2023-01-07T15:21:10.891Z,49.10
2023-01-07T15:24:03.660Z,42.80
2023-01-07T15:26:43.678Z,37.40
2023-01-07T15:29:57.568Z,41.50
2023-01-07T15:32:52.126Z,31.50
2023-01-07T15:37:52.237Z,31.40
2023-01-07T15:40:25.004Z,30.30
2023-01-07T15:42:57.706Z,30.10
2023-01-07T15:45:28.834Z,30.10
2023-01-07T15:48:13.359Z,29.20
2023-01-07T15:50:45.860Z,26.30
2023-01-07T15:53:14.245Z,26.30
2023-01-07T15:55:52.066Z,28.00
2023-01-07T15:58:48.984Z,27.50
2023-01-07T16:01:23.280Z,26.50
2023-01-07T16:03:55.265Z,26.70
2023-01-07T16:06:32.647Z,28.00
2023-01-07T16:09:16.898Z,27.30
2023-01-07T16:11:46.585Z,26.60
2023-01-07T16:14:17.907Z,27.60
2023-01-07T16:16:46.305Z,25.20
2023-01-07T16:19:20.549Z,28.10
2023-01-07T16:21:55.323Z,25.30
2023-01-07T16:24:24.329Z,23.20
2023-01-07T16:26:55.510Z,25.20
2023-01-07T16:29:29.936Z,24.80
2023-01-07T16:31:59.254Z,23.80
2023-01-07T16:34:27.564Z,24.20
2023-01-07T16:36:58.564Z,24.00
2023-01-07T16:39:31.619Z,20.90
2023-01-07T16:42:18.892Z,22.50
2023-01-07T16:44:49.744Z,22.90
2023-01-07T16:47:26.887Z,24.10
2023-01-07T16:50:19.564Z,24.50
2023-01-07T16:52:56.483Z,23.70
2023-01-07T16:55:53.323Z,23.10
2023-01-07T16:58:40.945Z,24.40
2023-01-07T17:01:10.685Z,24.10
2023-01-07T17:03:50.402Z,22.50
2023-01-07T17:06:27.024Z,28.20
2023-01-07T17:08:56.812Z,25.30
2023-01-07T17:11:38.434Z,24.00
2023-01-07T17:14:34.209Z,27.10
2023-01-07T17:17:18.514Z,26.60
2023-01-07T17:19:53.725Z,28.50
2023-01-07T17:22:40.011Z,27.30
2023-01-07T17:25:15.687Z,28.90
2023-01-07T17:28:08.630Z,25.50
2023-01-07T17:30:37.786Z,25.10
2023-01-07T17:33:06.428Z,25.20
2023-01-07T17:35:46.824Z,25.50
2023-01-07T17:38:16.886Z,25.00
2023-01-07T17:40:45.773Z,23.90
2023-01-07T17:43:34.326Z,24.40
2023-01-07T17:46:04.111Z,24.90
2023-01-07T17:48:34.048Z,24.60
2023-01-07T17:51:04.767Z,24.70
2023-01-07T17:53:39.589Z,21.50
2023-01-07T17:56:08.299Z,24.10
2023-01-07T17:58:38.898Z,23.30
2023-01-07T18:01:10.399Z,30.80
2023-01-07T18:03:39.136Z,28.40
2023-01-07T18:06:18.140Z,25.50
2023-01-07T18:08:48.082Z,25.70
2023-01-07T18:11:41.428Z,27.10
2023-01-07T18:14:13.944Z,28.70
2023-01-07T18:16:43.025Z,25.20
2023-01-07T18:19:13.616Z,28.30
2023-01-07T18:21:42.422Z,28.60
2023-01-07T18:24:19.972Z,23.60
2023-01-07T18:26:48.435Z,25.60
2023-01-07T18:29:16.744Z,25.40
2023-01-07T18:31:45.497Z,25.40
2023-01-07T18:34:16.409Z,26.40
2023-01-07T18:36:47.257Z,20.40
2023-01-07T18:39:19.356Z,28.60
2023-01-07T18:41:51.615Z,31.50
2023-01-07T18:44:21.883Z,30.50
2023-01-07T18:46:50.179Z,31.20
2023-01-07T18:49:18.573Z,30.80
2023-01-07T18:51:48.311Z,30.90
2023-01-07T18:54:17.024Z,30.20
2023-01-07T18:56:48.093Z,29.50
2023-01-07T18:59:16.586Z,29.60
2023-01-07T19:01:45.263Z,30.90
2023-01-07T19:04:13.778Z,34.10
2023-01-07T19:06:42.264Z,33.50
2023-01-07T19:09:10.588Z,30.80
2023-01-07T19:11:38.863Z,31.90
2023-01-07T19:14:12.348Z,37.20
2023-01-07T19:19:10.226Z,30.10
2023-01-07T19:21:38.855Z,33.20
2023-01-07T19:24:07.434Z,31.60
2023-01-07T19:26:35.837Z,31.10
2023-01-07T19:29:04.299Z,33.00
2023-01-07T19:31:32.843Z,30.00
2023-01-07T19:34:04.200Z,31.00
2023-01-07T19:36:32.646Z,32.30
2023-01-07T19:39:00.988Z,34.00
2023-01-07T19:41:29.624Z,31.60
2023-01-07T19:44:00.011Z,32.20
2023-01-07T19:46:28.716Z,33.90
2023-01-07T19:48:57.163Z,39.90
2023-01-07T19:51:25.486Z,38.90
2023-01-07T19:53:54.055Z,36.20
2023-01-07T19:56:22.355Z,34.30
2023-01-07T19:58:54.194Z,34.80
2023-01-07T20:01:26.710Z,30.90
2023-01-07T20:03:57.372Z,30.10
2023-01-07T20:06:30.257Z,28.70
2023-01-07T20:08:58.943Z,33.40
2023-01-07T20:11:27.244Z,35.30
2023-01-07T20:13:55.606Z,30.00
2023-01-07T20:16:24.947Z,30.40
2023-01-07T20:18:55.337Z,31.50
2023-01-07T20:21:28.523Z,34.30
2023-01-07T20:23:56.850Z,32.00
2023-01-07T20:26:31.104Z,33.50
2023-01-07T20:29:00.543Z,32.10
2023-01-07T20:31:31.810Z,31.10
2023-01-07T20:34:00.530Z,31.60
2023-01-07T20:36:31.813Z,31.40
2023-01-07T20:39:05.920Z,30.50
2023-01-07T20:41:36.504Z,32.10
2023-01-07T20:44:08.961Z,34.00
2023-01-07T20:46:43.374Z,38.30
2023-01-07T20:49:12.805Z,34.00
2023-01-07T20:51:41.148Z,34.50
2023-01-07T20:54:09.547Z,34.20
2023-01-07T20:56:38.132Z,33.30
2023-01-07T20:59:06.543Z,32.90
2023-01-07T21:01:35.185Z,30.70
2023-01-07T21:04:03.853Z,29.70
2023-01-07T21:06:32.289Z,34.10
2023-01-07T21:09:00.856Z,33.90
2023-01-07T21:11:29.384Z,33.70
2023-01-07T21:13:57.825Z,32.70
2023-01-07T21:16:27.719Z,32.00
2023-01-07T21:18:56.674Z,34.50
2023-01-07T21:21:26.762Z,30.70
2023-01-07T21:23:55.477Z,29.70
2023-01-07T21:26:25.132Z,30.70
2023-01-07T21:28:56.304Z,30.00
2023-01-07T21:31:26.900Z,31.40
2023-01-07T21:33:57.104Z,28.30
2023-01-07T21:36:26.964Z,24.80
2023-01-07T21:38:57.256Z,32.10
2023-01-07T21:41:27.408Z,27.80
2023-01-07T21:43:56.375Z,30.20
2023-01-07T21:46:24.790Z,28.30
2023-01-07T21:48:53.247Z,27.20
2023-01-07T21:51:25.135Z,27.50
2023-01-07T21:53:58.466Z,28.30
2023-01-07T21:56:32.535Z,27.90
2023-01-07T22:01:29.700Z,25.80
2023-01-07T22:03:59.446Z,28.30
2023-01-07T22:06:36.080Z,28.60
2023-01-07T22:09:09.114Z,28.10
2023-01-07T22:11:39.312Z,28.10
2023-01-07T22:14:12.083Z,28.10
2023-01-07T22:16:40.517Z,27.10
2023-01-07T22:19:11.343Z,26.50
2023-01-07T22:21:40.079Z,27.10
2023-01-07T22:24:08.554Z,25.60
2023-01-07T22:26:37.175Z,28.70
2023-01-07T22:29:08.014Z,30.90
2023-01-07T22:31:37.397Z,29.80
2023-01-07T22:34:07.114Z,28.10
2023-01-07T22:36:35.383Z,28.30
2023-01-07T22:39:10.564Z,29.20
2023-01-07T22:41:39.393Z,28.70
2023-01-07T22:44:13.089Z,31.50
2023-01-07T22:46:45.888Z,30.50
2023-01-07T22:49:15.173Z,30.90
2023-01-07T22:51:48.421Z,29.70
2023-01-07T22:54:17.943Z,30.90
2023-01-07T22:56:47.064Z,28.20
2023-01-07T22:59:15.617Z,30.90
2023-01-07T23:01:44.039Z,30.30
2023-01-07T23:04:12.542Z,31.80
2023-01-07T23:06:40.900Z,33.60
2023-01-07T23:09:09.284Z,31.80
2023-01-07T23:11:49.727Z,31.60
2023-01-07T23:14:22.863Z,32.30
2023-01-07T23:16:52.476Z,30.90
2023-01-07T23:19:21.845Z,33.40
2023-01-07T23:21:53.648Z,28.50
2023-01-07T23:24:23.611Z,29.70
2023-01-07T23:26:54.402Z,31.80
2023-01-07T23:29:23.300Z,30.80
2023-01-07T23:31:51.739Z,30.40
2023-01-07T23:34:20.310Z,28.70
2023-01-07T23:36:48.785Z,29.60
2023-01-07T23:39:17.321Z,29.60
2023-01-07T23:41:46.043Z,30.20
2023-01-07T23:44:14.585Z,30.70
2023-01-07T23:46:43.084Z,28.40
2023-01-07T23:49:11.488Z,28.50
2023-01-07T23:51:41.431Z,28.60
2023-01-07T23:54:10.290Z,29.20
2023-01-07T23:56:38.762Z,29.60
2023-01-07T23:59:07.381Z,29.00
